sensor_id;sensor_type;location;lat;lon;timestamp;P1;durP1;ratioP1;P2;durP2;ratioP2
44197;SDS011;30157;55.512;37.764;2022-10-16T00:01:51;12.40;;;6.93;;
44197;SDS011;30157;55.512;37.764;2022-10-16T00:04:17;10.45;;;6.45;;
44197;SDS011;30157;55.512;37.764;2022-10-16T00:06:42;13.90;;;6.50;;
44197;SDS011;30157;55.512;37.764;2022-10-16T00:09:08;10.57;;;6.53;;
44197;SDS011;30157;55.512;37.764;2022-10-16T00:11:35;13.63;;;7.40;;
44197;SDS011;30157;55.512;37.764;2022-10-16T00:14:03;10.68;;;5.90;;
44197;SDS011;30157;55.512;37.764;2022-10-16T00:16:30;11.75;;;6.88;;
44197;SDS011;30157;55.512;37.764;2022-10-16T00:18:56;11.85;;;6.65;;
44197;SDS011;30157;55.512;37.764;2022-10-16T00:21:26;13.88;;;6.63;;
44197;SDS011;30157;55.512;37.764;2022-10-16T00:24:12;11.05;;;7.03;;
44197;SDS011;30157;55.512;37.764;2022-10-16T00:26:38;13.13;;;6.70;;
44197;SDS011;30157;55.512;37.764;2022-10-16T00:29:05;9.23;;;6.38;;
44197;SDS011;30157;55.512;37.764;2022-10-16T00:31:31;10.98;;;6.10;;
44197;SDS011;30157;55.512;37.764;2022-10-16T00:33:57;8.80;;;5.85;;
44197;SDS011;30157;55.512;37.764;2022-10-16T00:36:23;8.95;;;5.97;;
44197;SDS011;30157;55.512;37.764;2022-10-16T00:38:51;10.13;;;5.90;;
44197;SDS011;30157;55.512;37.764;2022-10-16T00:41:21;10.98;;;6.57;;
44197;SDS011;30157;55.512;37.764;2022-10-16T00:43:55;10.07;;;6.15;;
44197;SDS011;30157;55.512;37.764;2022-10-16T00:46:31;10.73;;;6.70;;
44197;SDS011;30157;55.512;37.764;2022-10-16T00:51:52;9.15;;;5.93;;
44197;SDS011;30157;55.512;37.764;2022-10-16T00:54:19;10.95;;;5.97;;
44197;SDS011;30157;55.512;37.764;2022-10-16T00:56:47;11.80;;;6.43;;
44197;SDS011;30157;55.512;37.764;2022-10-16T00:59:22;10.75;;;6.63;;
44197;SDS011;30157;55.512;37.764;2022-10-16T01:01:51;12.32;;;7.30;;
44197;SDS011;30157;55.512;37.764;2022-10-16T01:04:17;9.70;;;6.05;;
44197;SDS011;30157;55.512;37.764;2022-10-16T01:13:23;11.02;;;5.63;;
44197;SDS011;30157;55.512;37.764;2022-10-16T01:15:37;8.63;;;5.45;;
44197;SDS011;30157;55.512;37.764;2022-10-16T01:20:40;10.07;;;5.25;;
44197;SDS011;30157;55.512;37.764;2022-10-16T01:26:03;9.57;;;5.28;;
44197;SDS011;30157;55.512;37.764;2022-10-16T01:28:41;10.38;;;5.55;;
44197;SDS011;30157;55.512;37.764;2022-10-16T01:31:14;9.43;;;5.10;;
44197;SDS011;30157;55.512;37.764;2022-10-16T01:33:45;9.13;;;5.03;;
44197;SDS011;30157;55.512;37.764;2022-10-16T01:36:17;9.75;;;5.82;;
44197;SDS011;30157;55.512;37.764;2022-10-16T01:38:50;7.95;;;5.20;;
44197;SDS011;30157;55.512;37.764;2022-10-16T01:41:23;11.07;;;5.18;;
44197;SDS011;30157;55.512;37.764;2022-10-16T01:44:02;8.00;;;4.70;;
44197;SDS011;30157;55.512;37.764;2022-10-16T01:46:31;9.25;;;5.20;;
44197;SDS011;30157;55.512;37.764;2022-10-16T01:49:00;11.20;;;5.85;;
44197;SDS011;30157;55.512;37.764;2022-10-16T01:51:28;6.70;;;4.80;;
44197;SDS011;30157;55.512;37.764;2022-10-16T01:53:55;8.35;;;5.13;;
44197;SDS011;30157;55.512;37.764;2022-10-16T01:56:24;8.45;;;5.07;;
44197;SDS011;30157;55.512;37.764;2022-10-16T01:58:55;9.23;;;4.90;;
44197;SDS011;30157;55.512;37.764;2022-10-16T02:01:26;8.05;;;4.60;;
44197;SDS011;30157;55.512;37.764;2022-10-16T02:03:55;8.52;;;4.57;;
44197;SDS011;30157;55.512;37.764;2022-10-16T02:06:24;9.23;;;5.50;;
44197;SDS011;30157;55.512;37.764;2022-10-16T02:08:50;8.32;;;4.97;;
44197;SDS011;30157;55.512;37.764;2022-10-16T02:11:16;9.50;;;5.25;;
44197;SDS011;30157;55.512;37.764;2022-10-16T02:13:46;9.57;;;5.55;;
44197;SDS011;30157;55.512;37.764;2022-10-16T02:16:17;11.77;;;5.22;;
44197;SDS011;30157;55.512;37.764;2022-10-16T02:18:43;10.60;;;5.63;;
44197;SDS011;30157;55.512;37.764;2022-10-16T02:21:17;10.52;;;5.40;;
44197;SDS011;30157;55.512;37.764;2022-10-16T02:26:43;10.57;;;5.15;;
44197;SDS011;30157;55.512;37.764;2022-10-16T02:29:17;8.10;;;4.75;;
44197;SDS011;30157;55.512;37.764;2022-10-16T02:31:49;12.80;;;7.03;;
44197;SDS011;30157;55.512;37.764;2022-10-16T02:34:19;10.73;;;5.50;;
44197;SDS011;30157;55.512;37.764;2022-10-16T02:36:46;10.10;;;5.43;;
44197;SDS011;30157;55.512;37.764;2022-10-16T02:39:14;6.95;;;4.70;;
44197;SDS011;30157;55.512;37.764;2022-10-16T02:41:43;10.60;;;5.45;;
44197;SDS011;30157;55.512;37.764;2022-10-16T02:44:09;7.65;;;5.00;;
44197;SDS011;30157;55.512;37.764;2022-10-16T02:46:35;7.82;;;5.15;;
44197;SDS011;30157;55.512;37.764;2022-10-16T02:49:00;8.40;;;5.07;;
44197;SDS011;30157;55.512;37.764;2022-10-16T02:51:26;8.70;;;4.95;;
44197;SDS011;30157;55.512;37.764;2022-10-16T02:53:52;8.68;;;5.35;;
44197;SDS011;30157;55.512;37.764;2022-10-16T02:56:18;7.88;;;4.70;;
44197;SDS011;30157;55.512;37.764;2022-10-16T02:58:44;8.82;;;5.07;;
44197;SDS011;30157;55.512;37.764;2022-10-16T03:01:09;9.75;;;5.10;;
44197;SDS011;30157;55.512;37.764;2022-10-16T03:03:39;8.07;;;5.03;;
44197;SDS011;30157;55.512;37.764;2022-10-16T03:06:05;8.93;;;4.75;;
44197;SDS011;30157;55.512;37.764;2022-10-16T03:08:31;11.15;;;5.35;;
44197;SDS011;30157;55.512;37.764;2022-10-16T03:10:56;7.43;;;4.95;;
44197;SDS011;30157;55.512;37.764;2022-10-16T03:13:22;9.02;;;5.20;;
44197;SDS011;30157;55.512;37.764;2022-10-16T03:15:48;9.35;;;4.85;;
44197;SDS011;30157;55.512;37.764;2022-10-16T03:18:13;8.73;;;5.00;;
44197;SDS011;30157;55.512;37.764;2022-10-16T03:20:40;8.75;;;5.13;;
44197;SDS011;30157;55.512;37.764;2022-10-16T03:23:05;8.13;;;4.72;;
44197;SDS011;30157;55.512;37.764;2022-10-16T03:25:33;8.30;;;4.40;;
44197;SDS011;30157;55.512;37.764;2022-10-16T03:27:59;8.80;;;4.45;;
44197;SDS011;30157;55.512;37.764;2022-10-16T03:30:27;9.15;;;4.95;;
44197;SDS011;30157;55.512;37.764;2022-10-16T03:32:52;7.57;;;4.82;;
44197;SDS011;30157;55.512;37.764;2022-10-16T03:35:19;8.15;;;5.00;;
44197;SDS011;30157;55.512;37.764;2022-10-16T03:37:45;8.02;;;4.90;;
44197;SDS011;30157;55.512;37.764;2022-10-16T03:40:11;7.75;;;4.80;;
44197;SDS011;30157;55.512;37.764;2022-10-16T03:42:37;6.75;;;4.10;;
44197;SDS011;30157;55.512;37.764;2022-10-16T03:45:03;8.75;;;4.60;;
44197;SDS011;30157;55.512;37.764;2022-10-16T03:47:29;8.55;;;4.60;;
44197;SDS011;30157;55.512;37.764;2022-10-16T03:49:55;9.68;;;4.88;;
44197;SDS011;30157;55.512;37.764;2022-10-16T03:52:21;8.23;;;5.30;;
44197;SDS011;30157;55.512;37.764;2022-10-16T03:54:47;7.85;;;5.38;;
44197;SDS011;30157;55.512;37.764;2022-10-16T03:57:12;9.05;;;5.30;;
44197;SDS011;30157;55.512;37.764;2022-10-16T03:59:38;8.30;;;4.38;;
44197;SDS011;30157;55.512;37.764;2022-10-16T04:02:03;7.18;;;4.50;;
44197;SDS011;30157;55.512;37.764;2022-10-16T04:04:29;9.63;;;4.95;;
44197;SDS011;30157;55.512;37.764;2022-10-16T04:06:55;8.00;;;4.88;;
44197;SDS011;30157;55.512;37.764;2022-10-16T04:09:20;8.13;;;5.30;;
44197;SDS011;30157;55.512;37.764;2022-10-16T04:11:46;7.32;;;5.25;;
44197;SDS011;30157;55.512;37.764;2022-10-16T04:14:11;9.13;;;5.47;;
44197;SDS011;30157;55.512;37.764;2022-10-16T04:16:37;10.15;;;5.68;;
44197;SDS011;30157;55.512;37.764;2022-10-16T04:19:03;8.88;;;5.40;;
44197;SDS011;30157;55.512;37.764;2022-10-16T04:21:28;9.68;;;6.35;;
44197;SDS011;30157;55.512;37.764;2022-10-16T04:23:54;10.48;;;6.93;;
44197;SDS011;30157;55.512;37.764;2022-10-16T04:26:20;11.25;;;6.80;;
44197;SDS011;30157;55.512;37.764;2022-10-16T04:28:45;11.27;;;7.20;;
44197;SDS011;30157;55.512;37.764;2022-10-16T04:31:11;13.35;;;6.80;;
44197;SDS011;30157;55.512;37.764;2022-10-16T04:33:37;10.40;;;7.03;;
44197;SDS011;30157;55.512;37.764;2022-10-16T04:36:02;13.35;;;7.60;;
44197;SDS011;30157;55.512;37.764;2022-10-16T04:38:29;15.15;;;9.50;;
44197;SDS011;30157;55.512;37.764;2022-10-16T04:40:55;12.60;;;7.55;;
44197;SDS011;30157;55.512;37.764;2022-10-16T04:43:21;14.05;;;8.45;;
44197;SDS011;30157;55.512;37.764;2022-10-16T04:45:46;13.75;;;8.30;;
44197;SDS011;30157;55.512;37.764;2022-10-16T04:48:12;10.93;;;8.02;;
44197;SDS011;30157;55.512;37.764;2022-10-16T04:50:38;13.13;;;8.40;;
44197;SDS011;30157;55.512;37.764;2022-10-16T04:53:05;12.30;;;8.10;;
44197;SDS011;30157;55.512;37.764;2022-10-16T04:55:31;13.57;;;7.75;;
44197;SDS011;30157;55.512;37.764;2022-10-16T04:57:57;11.57;;;7.38;;
44197;SDS011;30157;55.512;37.764;2022-10-16T05:00:25;9.40;;;6.32;;
44197;SDS011;30157;55.512;37.764;2022-10-16T05:02:50;12.73;;;7.35;;
44197;SDS011;30157;55.512;37.764;2022-10-16T05:05:17;11.88;;;7.22;;
44197;SDS011;30157;55.512;37.764;2022-10-16T05:07:45;10.63;;;6.40;;
44197;SDS011;30157;55.512;37.764;2022-10-16T05:10:11;12.65;;;6.75;;
44197;SDS011;30157;55.512;37.764;2022-10-16T05:12:37;10.52;;;7.20;;
44197;SDS011;30157;55.512;37.764;2022-10-16T05:15:03;11.73;;;6.90;;
44197;SDS011;30157;55.512;37.764;2022-10-16T05:17:29;10.38;;;6.55;;
44197;SDS011;30157;55.512;37.764;2022-10-16T05:19:55;10.10;;;6.72;;
44197;SDS011;30157;55.512;37.764;2022-10-16T05:22:21;9.63;;;6.57;;
44197;SDS011;30157;55.512;37.764;2022-10-16T05:24:47;10.85;;;6.30;;
44197;SDS011;30157;55.512;37.764;2022-10-16T05:27:12;11.65;;;6.22;;
44197;SDS011;30157;55.512;37.764;2022-10-16T05:29:44;9.88;;;6.43;;
44197;SDS011;30157;55.512;37.764;2022-10-16T05:32:12;10.13;;;6.70;;
44197;SDS011;30157;55.512;37.764;2022-10-16T05:34:39;9.70;;;6.47;;
44197;SDS011;30157;55.512;37.764;2022-10-16T05:37:07;9.02;;;6.40;;
44197;SDS011;30157;55.512;37.764;2022-10-16T05:39:33;9.48;;;5.75;;
44197;SDS011;30157;55.512;37.764;2022-10-16T05:41:58;9.85;;;6.10;;
44197;SDS011;30157;55.512;37.764;2022-10-16T05:44:24;9.00;;;5.63;;
44197;SDS011;30157;55.512;37.764;2022-10-16T05:46:50;9.88;;;5.72;;
44197;SDS011;30157;55.512;37.764;2022-10-16T05:49:15;8.95;;;5.70;;
44197;SDS011;30157;55.512;37.764;2022-10-16T05:51:41;8.40;;;5.60;;
44197;SDS011;30157;55.512;37.764;2022-10-16T05:54:07;10.43;;;6.10;;
44197;SDS011;30157;55.512;37.764;2022-10-16T05:56:34;8.00;;;5.28;;
44197;SDS011;30157;55.512;37.764;2022-10-16T05:58:59;8.15;;;5.35;;
44197;SDS011;30157;55.512;37.764;2022-10-16T06:01:25;8.38;;;5.45;;
44197;SDS011;30157;55.512;37.764;2022-10-16T06:03:51;11.10;;;6.10;;
44197;SDS011;30157;55.512;37.764;2022-10-16T06:06:18;8.57;;;5.65;;
44197;SDS011;30157;55.512;37.764;2022-10-16T06:08:48;8.52;;;6.10;;
44197;SDS011;30157;55.512;37.764;2022-10-16T06:11:16;10.48;;;6.07;;
44197;SDS011;30157;55.512;37.764;2022-10-16T06:13:43;11.10;;;6.05;;
44197;SDS011;30157;55.512;37.764;2022-10-16T06:16:11;9.95;;;5.88;;
44197;SDS011;30157;55.512;37.764;2022-10-16T06:18:38;8.20;;;5.57;;
44197;SDS011;30157;55.512;37.764;2022-10-16T06:21:12;9.05;;;5.55;;
44197;SDS011;30157;55.512;37.764;2022-10-16T06:23:39;11.10;;;6.35;;
44197;SDS011;30157;55.512;37.764;2022-10-16T06:26:08;11.40;;;6.18;;
44197;SDS011;30157;55.512;37.764;2022-10-16T06:28:35;12.15;;;6.07;;
44197;SDS011;30157;55.512;37.764;2022-10-16T06:31:02;13.02;;;6.00;;
44197;SDS011;30157;55.512;37.764;2022-10-16T06:33:29;10.30;;;6.00;;
44197;SDS011;30157;55.512;37.764;2022-10-16T06:35:59;9.73;;;5.90;;
44197;SDS011;30157;55.512;37.764;2022-10-16T06:38:26;7.95;;;5.50;;
44197;SDS011;30157;55.512;37.764;2022-10-16T06:40:53;7.43;;;5.05;;
44197;SDS011;30157;55.512;37.764;2022-10-16T06:43:19;8.93;;;5.28;;
44197;SDS011;30157;55.512;37.764;2022-10-16T06:45:50;9.63;;;5.07;;
44197;SDS011;30157;55.512;37.764;2022-10-16T06:48:25;8.02;;;5.13;;
44197;SDS011;30157;55.512;37.764;2022-10-16T06:50:58;8.38;;;5.05;;
44197;SDS011;30157;55.512;37.764;2022-10-16T06:53:25;8.70;;;5.40;;
44197;SDS011;30157;55.512;37.764;2022-10-16T06:55:52;9.32;;;5.53;;
44197;SDS011;30157;55.512;37.764;2022-10-16T06:58:18;12.25;;;5.68;;
44197;SDS011;30157;55.512;37.764;2022-10-16T07:00:44;10.32;;;5.00;;
44197;SDS011;30157;55.512;37.764;2022-10-16T07:03:10;9.43;;;5.60;;
44197;SDS011;30157;55.512;37.764;2022-10-16T07:05:39;10.05;;;5.93;;
44197;SDS011;30157;55.512;37.764;2022-10-16T07:08:08;9.63;;;5.05;;
44197;SDS011;30157;55.512;37.764;2022-10-16T07:10:34;9.20;;;5.40;;
44197;SDS011;30157;55.512;37.764;2022-10-16T07:13:00;11.18;;;4.90;;
44197;SDS011;30157;55.512;37.764;2022-10-16T07:15:26;7.63;;;4.95;;
44197;SDS011;30157;55.512;37.764;2022-10-16T07:17:52;10.90;;;5.40;;
44197;SDS011;30157;55.512;37.764;2022-10-16T07:20:19;10.40;;;5.35;;
44197;SDS011;30157;55.512;37.764;2022-10-16T07:22:45;9.88;;;5.40;;
44197;SDS011;30157;55.512;37.764;2022-10-16T07:25:11;6.55;;;4.50;;
44197;SDS011;30157;55.512;37.764;2022-10-16T07:27:37;7.13;;;4.95;;
44197;SDS011;30157;55.512;37.764;2022-10-16T07:30:04;9.27;;;5.25;;
44197;SDS011;30157;55.512;37.764;2022-10-16T07:32:30;9.02;;;5.60;;
44197;SDS011;30157;55.512;37.764;2022-10-16T07:34:57;5.85;;;4.18;;
44197;SDS011;30157;55.512;37.764;2022-10-16T07:37:23;11.57;;;5.07;;
44197;SDS011;30157;55.512;37.764;2022-10-16T07:39:49;8.10;;;4.82;;
44197;SDS011;30157;55.512;37.764;2022-10-16T07:42:15;8.60;;;4.82;;
44197;SDS011;30157;55.512;37.764;2022-10-16T07:44:43;7.35;;;4.20;;
44197;SDS011;30157;55.512;37.764;2022-10-16T07:47:09;6.28;;;4.10;;
44197;SDS011;30157;55.512;37.764;2022-10-16T07:49:34;6.80;;;4.18;;
44197;SDS011;30157;55.512;37.764;2022-10-16T07:52:00;8.18;;;4.28;;
44197;SDS011;30157;55.512;37.764;2022-10-16T07:54:26;9.32;;;5.18;;
44197;SDS011;30157;55.512;37.764;2022-10-16T07:56:51;6.95;;;4.28;;
44197;SDS011;30157;55.512;37.764;2022-10-16T07:59:17;7.13;;;4.25;;
44197;SDS011;30157;55.512;37.764;2022-10-16T08:01:43;6.60;;;4.22;;
44197;SDS011;30157;55.512;37.764;2022-10-16T08:04:09;8.40;;;4.80;;
44197;SDS011;30157;55.512;37.764;2022-10-16T08:06:35;6.30;;;4.10;;
44197;SDS011;30157;55.512;37.764;2022-10-16T08:09:03;10.07;;;4.28;;
44197;SDS011;30157;55.512;37.764;2022-10-16T08:11:29;6.30;;;3.80;;
44197;SDS011;30157;55.512;37.764;2022-10-16T08:13:55;6.57;;;4.28;;
44197;SDS011;30157;55.512;37.764;2022-10-16T08:16:21;7.05;;;4.57;;
44197;SDS011;30157;55.512;37.764;2022-10-16T08:18:46;9.80;;;4.28;;
44197;SDS011;30157;55.512;37.764;2022-10-16T08:21:13;5.95;;;3.67;;
44197;SDS011;30157;55.512;37.764;2022-10-16T08:23:41;9.70;;;4.78;;
44197;SDS011;30157;55.512;37.764;2022-10-16T08:26:08;8.15;;;4.00;;
44197;SDS011;30157;55.512;37.764;2022-10-16T08:28:34;6.82;;;4.20;;
44197;SDS011;30157;55.512;37.764;2022-10-16T08:31:13;7.25;;;4.70;;
44197;SDS011;30157;55.512;37.764;2022-10-16T08:33:42;8.13;;;4.78;;
44197;SDS011;30157;55.512;37.764;2022-10-16T08:36:10;6.72;;;3.90;;
44197;SDS011;30157;55.512;37.764;2022-10-16T08:38:37;6.93;;;4.05;;
44197;SDS011;30157;55.512;37.764;2022-10-16T08:49:20;5.88;;;3.33;;
44197;SDS011;30157;55.512;37.764;2022-10-16T08:51:46;7.72;;;3.70;;
44197;SDS011;30157;55.512;37.764;2022-10-16T08:54:34;6.20;;;3.65;;
44197;SDS011;30157;55.512;37.764;2022-10-16T08:57:13;7.43;;;4.45;;
44197;SDS011;30157;55.512;37.764;2022-10-16T08:59:42;5.78;;;3.65;;
44197;SDS011;30157;55.512;37.764;2022-10-16T09:02:52;7.07;;;3.60;;
44197;SDS011;30157;55.512;37.764;2022-10-16T09:18:10;6.85;;;3.83;;
44197;SDS011;30157;55.512;37.764;2022-10-16T09:20:55;13.02;;;4.38;;
44197;SDS011;30157;55.512;37.764;2022-10-16T09:23:41;7.80;;;4.07;;
44197;SDS011;30157;55.512;37.764;2022-10-16T09:26:09;5.18;;;3.28;;
44197;SDS011;30157;55.512;37.764;2022-10-16T09:28:37;5.72;;;3.33;;
44197;SDS011;30157;55.512;37.764;2022-10-16T09:31:03;5.95;;;3.40;;
44197;SDS011;30157;55.512;37.764;2022-10-16T09:33:30;5.72;;;3.20;;
44197;SDS011;30157;55.512;37.764;2022-10-16T09:36:02;7.97;;;3.33;;
44197;SDS011;30157;55.512;37.764;2022-10-16T09:38:33;6.53;;;3.40;;
44197;SDS011;30157;55.512;37.764;2022-10-16T09:41:02;5.82;;;3.00;;
44197;SDS011;30157;55.512;37.764;2022-10-16T09:43:41;4.72;;;3.17;;
44197;SDS011;30157;55.512;37.764;2022-10-16T09:46:22;5.30;;;3.33;;
44197;SDS011;30157;55.512;37.764;2022-10-16T09:48:53;6.45;;;3.63;;
44197;SDS011;30157;55.512;37.764;2022-10-16T09:51:31;6.57;;;3.25;;
44197;SDS011;30157;55.512;37.764;2022-10-16T09:54:00;6.82;;;3.42;;
44197;SDS011;30157;55.512;37.764;2022-10-16T09:56:31;5.28;;;3.13;;
44197;SDS011;30157;55.512;37.764;2022-10-16T09:59:00;5.38;;;3.00;;
44197;SDS011;30157;55.512;37.764;2022-10-16T10:01:46;7.75;;;2.42;;
44197;SDS011;30157;55.512;37.764;2022-10-16T10:04:13;8.75;;;3.47;;
44197;SDS011;30157;55.512;37.764;2022-10-16T10:06:43;8.30;;;3.20;;
44197;SDS011;30157;55.512;37.764;2022-10-16T10:09:21;6.90;;;3.90;;
44197;SDS011;30157;55.512;37.764;2022-10-16T10:14:34;6.95;;;3.00;;
44197;SDS011;30157;55.512;37.764;2022-10-16T10:17:12;6.10;;;2.90;;
44197;SDS011;30157;55.512;37.764;2022-10-16T10:30:44;7.43;;;3.13;;
44197;SDS011;30157;55.512;37.764;2022-10-16T10:36:28;5.82;;;2.90;;
44197;SDS011;30157;55.512;37.764;2022-10-16T10:39:02;5.93;;;3.08;;
44197;SDS011;30157;55.512;37.764;2022-10-16T10:44:24;7.15;;;3.45;;
44197;SDS011;30157;55.512;37.764;2022-10-16T10:56:00;6.70;;;3.30;;
44197;SDS011;30157;55.512;37.764;2022-10-16T11:07:25;3.97;;;2.67;;
44197;SDS011;30157;55.512;37.764;2022-10-16T11:10:15;7.28;;;2.83;;
44197;SDS011;30157;55.512;37.764;2022-10-16T11:12:55;6.30;;;3.28;;
44197;SDS011;30157;55.512;37.764;2022-10-16T11:15:39;6.72;;;2.72;;
44197;SDS011;30157;55.512;37.764;2022-10-16T11:18:16;6.72;;;2.72;;
44197;SDS011;30157;55.512;37.764;2022-10-16T11:20:57;5.53;;;2.90;;
44197;SDS011;30157;55.512;37.764;2022-10-16T11:23:29;4.28;;;2.42;;
44197;SDS011;30157;55.512;37.764;2022-10-16T11:26:18;5.95;;;2.63;;
44197;SDS011;30157;55.512;37.764;2022-10-16T11:28:51;3.95;;;2.45;;
44197;SDS011;30157;55.512;37.764;2022-10-16T11:34:44;7.70;;;2.75;;
44197;SDS011;30157;55.512;37.764;2022-10-16T11:37:19;6.60;;;3.28;;
44197;SDS011;30157;55.512;37.764;2022-10-16T11:39:51;4.60;;;2.75;;
44197;SDS011;30157;55.512;37.764;2022-10-16T11:42:27;5.30;;;2.70;;
44197;SDS011;30157;55.512;37.764;2022-10-16T11:45:04;4.75;;;2.40;;
44197;SDS011;30157;55.512;37.764;2022-10-16T11:52:57;4.38;;;2.92;;
44197;SDS011;30157;55.512;37.764;2022-10-16T11:55:44;9.10;;;2.90;;
44197;SDS011;30157;55.512;37.764;2022-10-16T12:08:38;4.68;;;2.40;;
44197;SDS011;30157;55.512;37.764;2022-10-16T12:11:09;5.05;;;2.75;;
44197;SDS011;30157;55.512;37.764;2022-10-16T12:13:47;5.32;;;2.83;;
44197;SDS011;30157;55.512;37.764;2022-10-16T12:18:45;4.82;;;2.53;;
44197;SDS011;30157;55.512;37.764;2022-10-16T12:21:13;4.00;;;2.63;;
44197;SDS011;30157;55.512;37.764;2022-10-16T12:23:56;3.88;;;2.45;;
44197;SDS011;30157;55.512;37.764;2022-10-16T12:26:32;4.40;;;2.45;;
44197;SDS011;30157;55.512;37.764;2022-10-16T12:29:20;5.78;;;2.70;;
44197;SDS011;30157;55.512;37.764;2022-10-16T12:34:20;6.63;;;2.95;;
44197;SDS011;30157;55.512;37.764;2022-10-16T12:36:50;8.43;;;3.17;;
44197;SDS011;30157;55.512;37.764;2022-10-16T12:39:20;8.68;;;2.90;;
44197;SDS011;30157;55.512;37.764;2022-10-16T12:41:48;6.28;;;3.15;;
44197;SDS011;30157;55.512;37.764;2022-10-16T12:44:26;4.75;;;2.75;;
44197;SDS011;30157;55.512;37.764;2022-10-16T12:46:57;7.80;;;2.88;;
44197;SDS011;30157;55.512;37.764;2022-10-16T12:49:36;5.75;;;3.17;;
44197;SDS011;30157;55.512;37.764;2022-10-16T12:52:22;5.78;;;2.78;;
44197;SDS011;30157;55.512;37.764;2022-10-16T12:55:05;7.68;;;3.78;;
44197;SDS011;30157;55.512;37.764;2022-10-16T13:11:42;7.82;;;3.08;;
44197;SDS011;30157;55.512;37.764;2022-10-16T13:27:55;6.55;;;3.10;;
44197;SDS011;30157;55.512;37.764;2022-10-16T13:30:31;4.95;;;2.92;;
44197;SDS011;30157;55.512;37.764;2022-10-16T13:36:03;7.32;;;3.10;;
44197;SDS011;30157;55.512;37.764;2022-10-16T13:38:31;6.38;;;3.33;;
44197;SDS011;30157;55.512;37.764;2022-10-16T13:40:59;6.03;;;2.67;;
44197;SDS011;30157;55.512;37.764;2022-10-16T13:43:51;6.70;;;2.88;;
44197;SDS011;30157;55.512;37.764;2022-10-16T13:46:22;5.03;;;2.95;;
44197;SDS011;30157;55.512;37.764;2022-10-16T13:48:58;11.15;;;3.92;;
44197;SDS011;30157;55.512;37.764;2022-10-16T13:51:26;6.72;;;3.00;;
44197;SDS011;30157;55.512;37.764;2022-10-16T13:53:54;12.73;;;4.68;;
44197;SDS011;30157;55.512;37.764;2022-10-16T13:56:21;13.48;;;3.70;;
44197;SDS011;30157;55.512;37.764;2022-10-16T13:59:05;6.45;;;3.33;;
44197;SDS011;30157;55.512;37.764;2022-10-16T14:01:40;7.13;;;2.97;;
44197;SDS011;30157;55.512;37.764;2022-10-16T14:06:35;6.53;;;3.10;;
44197;SDS011;30157;55.512;37.764;2022-10-16T14:09:05;7.75;;;3.03;;
44197;SDS011;30157;55.512;37.764;2022-10-16T14:11:31;8.52;;;3.22;;
44197;SDS011;30157;55.512;37.764;2022-10-16T14:13:58;9.02;;;3.58;;
44197;SDS011;30157;55.512;37.764;2022-10-16T14:16:28;8.48;;;4.53;;
44197;SDS011;30157;55.512;37.764;2022-10-16T14:21:26;7.93;;;2.92;;
44197;SDS011;30157;55.512;37.764;2022-10-16T14:23:53;7.55;;;3.47;;
44197;SDS011;30157;55.512;37.764;2022-10-16T14:26:21;8.98;;;3.97;;
44197;SDS011;30157;55.512;37.764;2022-10-16T14:28:48;10.25;;;5.70;;
44197;SDS011;30157;55.512;37.764;2022-10-16T14:31:33;18.10;;;7.43;;
44197;SDS011;30157;55.512;37.764;2022-10-16T14:34:01;10.32;;;6.25;;
44197;SDS011;30157;55.512;37.764;2022-10-16T14:36:27;15.63;;;6.78;;
44197;SDS011;30157;55.512;37.764;2022-10-16T14:39:36;9.48;;;5.43;;
44197;SDS011;30157;55.512;37.764;2022-10-16T14:41:45;9.32;;;4.40;;
44197;SDS011;30157;55.512;37.764;2022-10-16T14:44:13;10.45;;;4.03;;
44197;SDS011;30157;55.512;37.764;2022-10-16T14:46:42;7.80;;;4.22;;
44197;SDS011;30157;55.512;37.764;2022-10-16T14:51:37;12.57;;;4.93;;
44197;SDS011;30157;55.512;37.764;2022-10-16T14:54:07;14.00;;;7.45;;
44197;SDS011;30157;55.512;37.764;2022-10-16T14:56:35;19.63;;;9.85;;
44197;SDS011;30157;55.512;37.764;2022-10-16T14:59:34;19.90;;;9.95;;
44197;SDS011;30157;55.512;37.764;2022-10-16T15:02:09;22.27;;;10.90;;
44197;SDS011;30157;55.512;37.764;2022-10-16T15:04:44;22.95;;;10.52;;
44197;SDS011;30157;55.512;37.764;2022-10-16T15:07:14;22.27;;;10.55;;
44197;SDS011;30157;55.512;37.764;2022-10-16T15:09:42;20.13;;;10.25;;
44197;SDS011;30157;55.512;37.764;2022-10-16T15:12:08;23.40;;;10.18;;
44197;SDS011;30157;55.512;37.764;2022-10-16T15:14:33;19.40;;;10.23;;
44197;SDS011;30157;55.512;37.764;2022-10-16T15:16:59;16.17;;;8.88;;
44197;SDS011;30157;55.512;37.764;2022-10-16T15:19:25;16.00;;;8.25;;
44197;SDS011;30157;55.512;37.764;2022-10-16T15:21:51;16.70;;;6.93;;
44197;SDS011;30157;55.512;37.764;2022-10-16T15:24:17;13.35;;;6.55;;
44197;SDS011;30157;55.512;37.764;2022-10-16T15:26:45;15.93;;;7.32;;
44197;SDS011;30157;55.512;37.764;2022-10-16T15:29:11;16.67;;;7.60;;
44197;SDS011;30157;55.512;37.764;2022-10-16T15:31:38;17.15;;;8.10;;
44197;SDS011;30157;55.512;37.764;2022-10-16T15:34:08;16.70;;;6.82;;
44197;SDS011;30157;55.512;37.764;2022-10-16T15:36:36;13.55;;;7.43;;
44197;SDS011;30157;55.512;37.764;2022-10-16T15:39:03;11.30;;;6.18;;
44197;SDS011;30157;55.512;37.764;2022-10-16T15:41:37;13.07;;;6.60;;
44197;SDS011;30157;55.512;37.764;2022-10-16T15:44:03;11.40;;;6.15;;
44197;SDS011;30157;55.512;37.764;2022-10-16T15:46:29;13.20;;;6.72;;
44197;SDS011;30157;55.512;37.764;2022-10-16T15:48:57;13.02;;;7.45;;
44197;SDS011;30157;55.512;37.764;2022-10-16T15:51:24;13.30;;;6.88;;
44197;SDS011;30157;55.512;37.764;2022-10-16T15:53:58;12.43;;;7.00;;
44197;SDS011;30157;55.512;37.764;2022-10-16T15:56:25;13.88;;;6.97;;
44197;SDS011;30157;55.512;37.764;2022-10-16T15:58:54;12.82;;;7.18;;
44197;SDS011;30157;55.512;37.764;2022-10-16T16:01:20;13.02;;;6.80;;
44197;SDS011;30157;55.512;37.764;2022-10-16T16:03:46;12.57;;;6.47;;
44197;SDS011;30157;55.512;37.764;2022-10-16T16:06:13;12.15;;;7.15;;
44197;SDS011;30157;55.512;37.764;2022-10-16T16:08:39;15.27;;;6.90;;
44197;SDS011;30157;55.512;37.764;2022-10-16T16:11:09;15.13;;;7.25;;
44197;SDS011;30157;55.512;37.764;2022-10-16T16:13:36;14.23;;;6.78;;
44197;SDS011;30157;55.512;37.764;2022-10-16T16:16:08;14.35;;;6.97;;
44197;SDS011;30157;55.512;37.764;2022-10-16T16:18:36;12.55;;;6.82;;
44197;SDS011;30157;55.512;37.764;2022-10-16T16:21:03;10.85;;;6.70;;
44197;SDS011;30157;55.512;37.764;2022-10-16T16:23:29;12.45;;;6.22;;
44197;SDS011;30157;55.512;37.764;2022-10-16T16:26:03;15.82;;;6.60;;
44197;SDS011;30157;55.512;37.764;2022-10-16T16:28:37;9.95;;;5.45;;
44197;SDS011;30157;55.512;37.764;2022-10-16T16:31:06;11.13;;;6.18;;
44197;SDS011;30157;55.512;37.764;2022-10-16T16:33:32;11.27;;;6.05;;
44197;SDS011;30157;55.512;37.764;2022-10-16T16:35:59;14.90;;;7.03;;
44197;SDS011;30157;55.512;37.764;2022-10-16T16:38:26;10.32;;;6.10;;
44197;SDS011;30157;55.512;37.764;2022-10-16T16:40:52;13.20;;;6.47;;
44197;SDS011;30157;55.512;37.764;2022-10-16T16:43:18;11.57;;;5.95;;
44197;SDS011;30157;55.512;37.764;2022-10-16T16:45:45;11.68;;;7.18;;
44197;SDS011;30157;55.512;37.764;2022-10-16T16:48:11;11.15;;;5.68;;
44197;SDS011;30157;55.512;37.764;2022-10-16T16:50:37;10.13;;;5.82;;
44197;SDS011;30157;55.512;37.764;2022-10-16T16:53:03;11.18;;;6.25;;
44197;SDS011;30157;55.512;37.764;2022-10-16T16:55:28;9.52;;;5.53;;
44197;SDS011;30157;55.512;37.764;2022-10-16T16:57:54;12.77;;;6.80;;
44197;SDS011;30157;55.512;37.764;2022-10-16T17:00:24;10.13;;;6.07;;